Mourad Didouche — 7TJC — position and weather

sailwx.info

Track history (hours):
 
Tides and Currents Weather Stations Pressure Air Temp Water Temp Dewpoint Dewpoint Depression Visibility Wind Speed Wind Dir Waves Ship Positions

Mourad Didouche

Last reported at 2018-Feb-16 16:54 UTC. Time now 2018-Feb-19 18:03 UTC.
Position N 36°27' E 000°29'.

Length 274 m; draft 9.5 m.

Type: Ship (hazmat cat B). MMSI: 605106030.

Date/timePositionNaut miles runAvg speedWind from/ knotsBaromVisibWave heightAir tempDewpointWater temp
2018-Feb-16 16:54N 36°27' E 000°29'15 9.3
2018-Feb-16 15:19N 36°34' E 000°45'6 9.8
2018-Feb-16 14:45N 36°37' E 000°51'6 9.5
2018-Feb-16 14:05N 36°39' E 000°59'1 9.2
2018-Feb-16 14:01N 36°40' E 000°59'5 9.4
2018-Feb-16 13:30N 36°41' E 001°05'5 9.6
2018-Feb-16 13:01N 36°42' E 001°11'16 9.1
2018-Feb-16 11:16N 36°46' E 001°30'11110.1
2018-Feb-16 00:13N 37°06' E 003°47'311.1
2018-Feb-15 23:55N 37°07' E 003°51'48511.0
2018-Feb-14 03:45N 36°31' E 013°55'411.8
2018-Feb-14 03:23N 36°30' E 013°60'511.7
2018-Feb-14 02:59N 36°28' E 014°05'611.6
2018-Feb-14 02:30N 36°26' E 014°12'611.5
2018-Feb-14 02:00N 36°25' E 014°19'611.3
2018-Feb-14 01:30N 36°24' E 014°26'610.9
2018-Feb-14 01:00N 36°22' E 014°32'510.5
2018-Feb-14 00:29N 36°22' E 014°39'510.6
2018-Feb-13 23:59N 36°21' E 014°45'48811.8
2018-Feb-12 06:35N 37°10' E 024°51'113.0
2018-Feb-12 06:30N 37°11' E 024°52'613.0
2018-Feb-12 06:01N 37°13' E 024°60'713.0
2018-Feb-12 05:30N 37°15' E 025°07'613.0
2018-Feb-12 05:01N 37°16' E 025°15'612.9
2018-Feb-12 04:30N 37°17' E 025°23'612.8
2018-Feb-12 04:00N 37°18' E 025°31'1411.9
2018-Feb-12 02:50N 37°28' E 025°43'413.0
2018-Feb-12 02:31N 37°33' E 025°43'  
Track history (hours):
 
Tides and Currents Weather Stations Pressure Air Temp Water Temp Dewpoint Dewpoint Depression Visibility Wind Speed Wind Dir Waves Ship Positions

Mourad Didouche

Last reported at 2018-Feb-16 16:54 UTC. Time now 2018-Feb-19 18:03 UTC.
Position N 36°27' E 000°29'.

Length 274 m; draft 9.5 m.

Type: Ship (hazmat cat B). MMSI: 605106030.

Date/timePositionNaut miles runAvg speedWind from/ knotsBaromVisibWave heightAir tempDewpointWater temp
2018-Feb-16 16:54N 36°27' E 000°29'15 9.3
2018-Feb-16 15:19N 36°34' E 000°45'6 9.8
2018-Feb-16 14:45N 36°37' E 000°51'6 9.5
2018-Feb-16 14:05N 36°39' E 000°59'1 9.2
2018-Feb-16 14:01N 36°40' E 000°59'5 9.4
2018-Feb-16 13:30N 36°41' E 001°05'5 9.6
2018-Feb-16 13:01N 36°42' E 001°11'16 9.1
2018-Feb-16 11:16N 36°46' E 001°30'11110.1
2018-Feb-16 00:13N 37°06' E 003°47'311.1
2018-Feb-15 23:55N 37°07' E 003°51'48511.0
2018-Feb-14 03:45N 36°31' E 013°55'411.8
2018-Feb-14 03:23N 36°30' E 013°60'511.7
2018-Feb-14 02:59N 36°28' E 014°05'611.6
2018-Feb-14 02:30N 36°26' E 014°12'611.5
2018-Feb-14 02:00N 36°25' E 014°19'611.3
2018-Feb-14 01:30N 36°24' E 014°26'610.9
2018-Feb-14 01:00N 36°22' E 014°32'510.5
2018-Feb-14 00:29N 36°22' E 014°39'510.6
2018-Feb-13 23:59N 36°21' E 014°45'48811.8
2018-Feb-12 06:35N 37°10' E 024°51'113.0
2018-Feb-12 06:30N 37°11' E 024°52'613.0
2018-Feb-12 06:01N 37°13' E 024°60'713.0
2018-Feb-12 05:30N 37°15' E 025°07'613.0
2018-Feb-12 05:01N 37°16' E 025°15'612.9
2018-Feb-12 04:30N 37°17' E 025°23'612.8
2018-Feb-12 04:00N 37°18' E 025°31'1411.9
2018-Feb-12 02:50N 37°28' E 025°43'413.0
2018-Feb-12 02:31N 37°33' E 025°43'  

Dump ship's entire track history